Mullally, Nebraska
Current Conditions -  °F | °C
As of 12:15 PM on Thursday 27 Nov 2014 (Local Time) from KHDE Reporting Station
Clear Clear  
Wind Chill: 24°   Ceiling: Unl
Heat Index: 35°   Visibility: 10mi
Dew Point: 19°   Wind: 20mph
Humidity: 53%   Direction: 190°S
Pressure: 30.26"   Gusts: 29mph
Location:  40.1316°N, 99.2306°W
Report Text: KHDE 271815Z AUTO 19017G25KT 10SM CLR 02/M07 A3026 RMK AO2 T00151072
Loading
Personal Weather Stations






























Interactive Weather Map New forecast layout! Learn more

10-Day Weather Forecast

Advertisements
Track Severe Weather on mobile